createdAt,value
2022-09-13T00:04:55.660Z,100050.97
2022-09-13T00:11:41.037Z,100017.78
2022-09-13T00:18:29.014Z,100036.41
2022-09-13T00:25:14.563Z,100022.72
2022-09-13T00:32:00.018Z,100024.28
2022-09-13T00:38:49.437Z,100021.41
2022-09-13T00:45:35.475Z,99970.47
2022-09-13T00:52:24.088Z,99992.69
2022-09-13T00:59:17.512Z,100010.69
2022-09-13T01:06:09.596Z,99999.84
2022-09-13T01:13:02.036Z,99932.13
2022-09-13T01:19:50.019Z,99896.81
2022-09-13T01:27:05.504Z,99925.31
2022-09-13T01:34:15.475Z,99981.38
2022-09-13T01:41:12.849Z,100013.88
2022-09-13T01:48:03.495Z,99908.72
2022-09-13T01:55:02.716Z,99956.78
2022-09-13T02:01:55.257Z,99870.03
2022-09-13T02:08:45.297Z,99969.03
2022-09-13T02:15:39.845Z,100010.25
2022-09-13T02:22:32.013Z,99989.44
2022-09-13T02:29:23.293Z,99981.50
2022-09-13T02:36:15.240Z,100029.84
2022-09-13T02:43:07.829Z,100039.00
2022-09-13T03:03:43.825Z,100029.31
2022-09-13T03:10:35.116Z,100029.31
2022-09-13T03:17:43.832Z,100002.41
2022-09-13T03:24:43.509Z,100001.44
2022-09-13T03:31:37.269Z,99991.91
2022-09-13T03:38:30.072Z,99984.28
2022-09-13T03:45:23.094Z,99973.47
2022-09-13T03:52:09.245Z,99973.91
2022-09-13T03:58:54.863Z,99962.13
2022-09-13T04:05:43.065Z,99973.47
2022-09-13T04:12:31.328Z,99951.16
2022-09-13T04:19:17.291Z,99959.06
2022-09-13T04:26:09.256Z,99953.38
2022-09-13T04:32:57.847Z,99960.59
2022-09-13T04:39:43.762Z,99967.25
2022-09-13T04:46:32.325Z,99964.88
2022-09-13T04:53:18.370Z,99968.47
2022-09-13T05:00:03.960Z,99984.38
2022-09-13T05:06:52.540Z,99999.03
2022-09-13T05:13:38.382Z,99978.03
2022-09-13T05:20:23.948Z,99973.75
2022-09-13T05:27:12.903Z,100013.78
2022-09-13T05:34:01.826Z,100016.16
2022-09-13T05:40:47.350Z,100018.81
2022-09-13T05:47:36.163Z,100009.97
2022-09-13T05:54:21.898Z,100029.97
2022-09-13T06:01:07.617Z,99855.94
2022-09-13T06:07:55.663Z,99994.81
2022-09-13T06:14:41.012Z,100016.22
2022-09-13T06:21:29.092Z,100010.28
2022-09-13T06:28:17.396Z,99998.72
2022-09-13T06:35:02.957Z,100020.25
2022-09-13T06:41:48.795Z,99987.25
2022-09-13T06:48:41.348Z,99948.63
2022-09-13T06:55:26.903Z,99962.94
2022-09-13T07:02:14.585Z,100027.81
2022-09-13T07:09:05.159Z,99992.81
2022-09-13T07:15:50.649Z,100057.59
2022-09-13T07:22:36.082Z,100083.56
2022-09-13T07:29:25.857Z,100065.81
2022-09-13T07:36:12.869Z,100075.06
2022-09-13T07:42:58.363Z,100068.34
2022-09-13T07:49:46.928Z,100036.53
2022-09-13T07:56:34.667Z,99962.72
2022-09-13T08:03:20.009Z,99992.47
2022-09-13T08:10:09.524Z,99967.25
2022-09-13T08:16:58.468Z,100000.13
2022-09-13T08:23:44.667Z,99988.25
2022-09-13T08:30:33.382Z,99990.88
2022-09-13T08:37:18.741Z,99981.03
2022-09-13T08:44:11.132Z,99966.09
2022-09-13T08:51:08.776Z,100003.53
2022-09-13T08:58:00.707Z,99946.56
2022-09-13T09:04:53.675Z,100013.78
2022-09-13T09:11:51.498Z,100011.59
2022-09-13T09:18:43.211Z,100008.13
2022-09-13T09:25:29.421Z,100001.78
2022-09-13T09:32:39.131Z,99997.28
2022-09-13T09:39:26.427Z,99987.25
2022-09-13T09:46:15.542Z,99987.19
2022-09-13T09:53:11.696Z,99971.72
2022-09-13T10:00:15.083Z,100017.00
2022-09-13T10:07:29.819Z,99975.19
2022-09-13T10:14:38.720Z,100007.47
2022-09-13T10:21:29.188Z,100008.00
2022-09-13T10:28:20.913Z,100016.13
2022-09-13T10:35:19.832Z,100015.44
2022-09-13T10:42:09.695Z,100010.81
2022-09-13T10:48:56.183Z,100018.44
2022-09-13T10:55:44.220Z,100018.75
2022-09-13T11:02:49.690Z,100003.03
2022-09-13T11:09:41.689Z,99998.97
2022-09-13T11:16:44.738Z,99984.56
2022-09-13T11:24:13.772Z,99993.03
2022-09-13T11:31:21.523Z,99997.94
2022-09-13T11:38:34.375Z,99998.50
2022-09-13T11:45:26.591Z,99990.97
2022-09-13T11:52:23.605Z,99977.41
2022-09-13T11:59:24.919Z,99966.19
2022-09-13T12:06:18.653Z,99971.84
2022-09-13T12:13:07.001Z,99917.53
2022-09-13T12:19:58.883Z,99925.16
2022-09-13T12:26:52.965Z,99913.56
2022-09-13T12:33:43.204Z,99899.97
2022-09-13T12:41:07.260Z,99910.81
2022-09-13T12:48:14.099Z,99900.00
2022-09-13T12:55:47.569Z,99900.81
2022-09-13T13:02:40.394Z,99904.78
2022-09-13T13:09:34.060Z,99897.56
2022-09-13T13:16:29.925Z,99895.09
2022-09-13T13:23:24.579Z,99896.16
2022-09-13T13:30:44.305Z,99830.28
2022-09-13T13:37:40.798Z,99891.81
2022-09-13T13:45:09.624Z,99870.91
2022-09-13T13:52:41.292Z,99863.66
2022-09-13T13:59:30.993Z,99855.25
2022-09-13T14:06:24.943Z,99804.88
2022-09-13T14:13:44.839Z,99834.72
2022-09-13T14:20:30.284Z,99786.81
2022-09-13T14:27:25.259Z,99829.44
2022-09-13T14:34:25.152Z,99832.16
2022-09-13T14:41:19.470Z,99820.47
2022-09-13T14:48:13.073Z,99807.94
2022-09-13T14:55:04.250Z,99798.97
2022-09-13T15:01:49.653Z,99790.03
2022-09-13T15:08:50.141Z,99777.97
2022-09-13T15:15:40.701Z,99783.19
2022-09-13T15:22:28.629Z,99710.44
2022-09-13T15:29:22.725Z,99765.78
2022-09-13T15:36:32.005Z,99759.25
2022-09-13T15:43:17.455Z,99760.00
2022-09-13T15:50:05.659Z,99749.50
2022-09-13T15:56:52.364Z,99749.50
2022-09-13T16:03:38.874Z,99743.97
2022-09-13T16:10:27.162Z,99744.13
2022-09-13T16:17:17.062Z,99738.22
2022-09-13T16:24:02.461Z,99743.50
2022-09-13T16:30:50.950Z,99747.53
2022-09-13T16:37:36.536Z,99744.75
2022-09-13T16:44:21.848Z,99739.72
2022-09-13T16:51:13.199Z,99697.72
2022-09-13T16:57:58.943Z,99732.66
2022-09-13T17:04:49.038Z,99724.25
2022-09-13T17:11:42.968Z,99726.34
2022-09-13T17:18:32.978Z,99729.84
2022-09-13T17:25:20.908Z,99692.53
2022-09-13T17:32:11.194Z,99747.19
2022-09-13T17:39:01.095Z,99748.13
2022-09-13T17:45:46.836Z,99756.94
2022-09-13T17:52:39.546Z,99759.00
2022-09-13T17:59:25.945Z,99761.47
2022-09-13T18:06:14.440Z,99689.69
2022-09-13T18:13:02.686Z,99738.63
2022-09-13T18:19:50.360Z,99732.69
2022-09-13T18:26:38.391Z,99712.69
2022-09-13T18:33:31.828Z,99703.22
2022-09-13T18:40:20.550Z,99713.66
2022-09-13T18:47:08.607Z,99736.19
2022-09-13T18:53:57.391Z,99751.41
2022-09-13T19:00:43.203Z,99721.56
2022-09-13T19:07:28.803Z,99747.88
2022-09-13T19:14:17.155Z,99728.16
2022-09-13T19:21:07.426Z,99732.78
2022-09-13T19:27:52.782Z,99714.78
2022-09-13T19:34:40.756Z,99727.97
2022-09-13T19:41:29.705Z,99726.03
2022-09-13T19:55:23.883Z,99735.66
2022-09-13T20:02:10.794Z,99732.06
2022-09-13T20:09:00.268Z,99707.72
2022-09-13T20:15:49.092Z,99707.22
2022-09-13T20:22:34.506Z,99720.44
2022-09-13T20:29:20.774Z,99736.44
2022-09-13T20:36:13.296Z,99738.44
2022-09-13T20:42:59.037Z,99732.78
2022-09-13T20:49:44.159Z,99720.25
2022-09-13T20:56:34.919Z,99704.38
2022-09-13T21:03:20.546Z,99720.03
2022-09-13T21:10:06.992Z,99707.59
2022-09-13T21:16:56.837Z,99689.19
2022-09-13T21:23:42.347Z,99642.16
2022-09-13T21:30:27.895Z,99683.16
2022-09-13T21:37:16.188Z,99673.56
2022-09-13T21:44:01.709Z,99676.38
2022-09-13T21:50:47.159Z,99653.94
2022-09-13T21:57:35.237Z,99637.97
2022-09-13T22:04:24.242Z,99620.41
2022-09-13T22:11:12.636Z,99602.81
2022-09-13T22:18:00.605Z,99598.47
2022-09-13T22:24:46.538Z,99604.88
2022-09-13T22:31:34.887Z,99596.06
2022-09-13T22:38:22.937Z,99607.69
2022-09-13T22:45:10.611Z,99600.47
2022-09-13T22:51:56.026Z,99592.06
2022-09-13T22:58:44.829Z,99583.97
2022-09-13T23:05:30.229Z,99581.97
2022-09-13T23:12:16.187Z,99590.34
2022-09-13T23:19:04.479Z,99568.34
2022-09-13T23:25:49.840Z,99563.16
2022-09-13T23:32:35.166Z,99571.59
2022-09-13T23:39:23.836Z,99560.03
2022-09-13T23:46:09.986Z,99578.75
2022-09-13T23:52:55.802Z,99582.00
2022-09-13T23:59:43.676Z,99573.44
